LGKN weather

Marathon Kotroni Air Base
Marathon, Attica, Greece

Public forecast

Using degrees Celsius for public forecast. Weather courtesy of forecast.io.

METAR (pilot weather report)

Closest report is Eleftherios Venizelos International Airport, 12.1 nm (22.4 km) S. Retrieved 2018/12/15 06:20 UTC (34 minutes ago):

LGAV 150620Z 02003KT 9999 SCT030 12/10 Q1017 NOSIG

TAF (pilot weather forecast)

Closest forecast is Eleftherios Venizelos International Airport, 12.1 nm (22.4 km) S. Retrieved 2018/12/15 06:12 UTC (42 minutes ago):

TAF TAF LGAV 150500Z 1506/1606 VRB03KT 9999 FEW010 SCT025 TEMPO 1510/1516 SCT020 BKN070 PROB30 TEMPO 1506/1508 5000 BR SCT010 PROB40 TEMPO 1600/1606 5000 RA FEW010 BKN020 BKN070 BECMG 1506/1508 17015KT